createdAt,value
2023-10-25T00:00:35.310Z,0.80
2023-10-25T00:03:03.614Z,0.88
2023-10-25T00:05:36.812Z,0.85
2023-10-25T00:08:05.111Z,1.00
2023-10-25T00:10:34.383Z,0.70
2023-10-25T00:13:02.540Z,0.60
2023-10-25T00:15:29.956Z,0.80
2023-10-25T00:17:57.267Z,0.70
2023-10-25T00:20:24.425Z,0.68
2023-10-25T00:22:51.669Z,0.60
2023-10-25T00:25:19.052Z,0.80
2023-10-25T00:27:46.386Z,1.25
2023-10-25T00:30:14.118Z,0.80
2023-10-25T00:32:42.096Z,0.80
2023-10-25T00:35:10.050Z,0.50
2023-10-25T00:37:37.340Z,0.90
2023-10-25T00:40:04.802Z,0.80
2023-10-25T00:42:32.323Z,0.90
2023-10-25T00:44:59.569Z,0.82
2023-10-25T00:47:26.872Z,0.80
2023-10-25T00:49:54.337Z,0.80
2023-10-25T00:52:21.848Z,0.93
2023-10-25T00:54:49.476Z,0.68
2023-10-25T00:57:17.078Z,1.17
2023-10-25T00:59:44.641Z,1.10
2023-10-25T01:02:13.959Z,0.93
2023-10-25T01:04:41.409Z,0.90
2023-10-25T01:07:09.296Z,0.90
2023-10-25T01:09:37.326Z,0.90
2023-10-25T01:12:05.038Z,0.95
2023-10-25T01:14:32.761Z,1.02
2023-10-25T01:17:00.668Z,1.15
2023-10-25T01:19:28.550Z,1.10
2023-10-25T01:21:55.849Z,0.90
2023-10-25T01:24:24.720Z,1.10
2023-10-25T01:26:52.067Z,1.10
2023-10-25T01:29:19.555Z,1.00
2023-10-25T01:31:46.836Z,1.10
2023-10-25T01:34:14.183Z,1.00
2023-10-25T01:36:41.541Z,1.00
2023-10-25T01:39:08.903Z,0.90
2023-10-25T01:41:36.185Z,1.40
2023-10-25T01:44:03.619Z,0.95
2023-10-25T01:46:31.775Z,1.35
2023-10-25T01:49:01.161Z,1.40
2023-10-25T01:51:28.467Z,1.38
2023-10-25T01:53:55.762Z,1.10
2023-10-25T01:56:23.020Z,1.60
2023-10-25T01:58:50.255Z,1.15
2023-10-25T02:01:17.517Z,1.52
2023-10-25T02:03:45.052Z,1.23
2023-10-25T02:06:16.480Z,1.20
2023-10-25T02:08:43.713Z,1.30
2023-10-25T02:11:10.940Z,1.38
2023-10-25T02:13:39.539Z,1.15
2023-10-25T02:16:17.835Z,1.25
2023-10-25T02:18:45.760Z,0.90
2023-10-25T02:21:13.040Z,1.00
2023-10-25T02:23:41.219Z,0.85
2023-10-25T02:26:08.829Z,0.90
2023-10-25T02:28:36.276Z,0.80
2023-10-25T02:31:03.796Z,0.90
2023-10-25T02:33:31.509Z,1.45
2023-10-25T02:35:58.748Z,1.02
2023-10-25T02:38:26.105Z,0.80
2023-10-25T02:40:53.349Z,0.98
2023-10-25T02:43:20.800Z,0.75
2023-10-25T02:45:48.272Z,1.00
2023-10-25T02:48:15.696Z,0.90
2023-10-25T02:50:43.229Z,1.02
2023-10-25T02:53:10.577Z,0.90
2023-10-25T02:55:38.346Z,0.80
2023-10-25T02:58:05.767Z,0.60
2023-10-25T03:00:33.316Z,0.63
2023-10-25T03:03:00.968Z,0.70
2023-10-25T03:05:28.472Z,0.90
2023-10-25T03:07:55.967Z,0.70
2023-10-25T03:10:23.458Z,0.82
2023-10-25T03:12:51.125Z,1.10
2023-10-25T03:15:19.257Z,1.10
2023-10-25T03:17:46.828Z,0.60
2023-10-25T03:20:14.223Z,0.90
2023-10-25T03:22:41.998Z,0.90
2023-10-25T03:25:09.979Z,0.95
2023-10-25T03:27:38.834Z,0.73
2023-10-25T03:30:08.781Z,0.85
2023-10-25T03:32:36.568Z,1.00
2023-10-25T03:35:04.378Z,1.15
2023-10-25T03:37:36.158Z,0.82
2023-10-25T03:40:05.484Z,0.75
2023-10-25T03:42:33.516Z,1.08
2023-10-25T03:45:01.195Z,0.75
2023-10-25T03:47:29.299Z,0.80
2023-10-25T03:49:56.899Z,1.20
2023-10-25T03:52:24.320Z,1.00
2023-10-25T03:54:53.625Z,0.90
2023-10-25T03:57:21.117Z,0.60
2023-10-25T03:59:48.772Z,1.15
2023-10-25T04:02:16.749Z,1.17
2023-10-25T04:04:44.373Z,1.10
2023-10-25T04:07:16.192Z,1.00
2023-10-25T04:09:44.366Z,1.23
2023-10-25T04:12:14.398Z,1.08
2023-10-25T04:15:02.112Z,0.98
2023-10-25T04:17:49.451Z,0.82
2023-10-25T04:20:37.075Z,1.00
2023-10-25T04:23:26.550Z,1.20
2023-10-25T04:26:07.750Z,1.10
2023-10-25T04:28:36.481Z,1.20
2023-10-25T04:31:05.471Z,0.93
2023-10-25T04:33:33.085Z,1.15
2023-10-25T04:36:01.133Z,1.20
2023-10-25T04:38:28.772Z,1.23
2023-10-25T04:40:57.259Z,1.13
2023-10-25T04:43:24.912Z,1.10
2023-10-25T04:45:55.279Z,1.02
2023-10-25T04:48:23.491Z,1.40
2023-10-25T04:50:51.878Z,1.17
2023-10-25T04:53:19.268Z,1.40
2023-10-25T04:55:47.723Z,1.50
2023-10-25T04:58:15.540Z,1.50
2023-10-25T05:01:13.380Z,1.20
2023-10-25T05:03:51.220Z,1.20
2023-10-25T05:06:38.768Z,0.90
2023-10-25T05:09:15.634Z,1.30
2023-10-25T05:11:51.166Z,0.93
2023-10-25T05:14:21.878Z,1.10
2023-10-25T05:16:49.888Z,1.17
2023-10-25T05:19:17.911Z,1.00
2023-10-25T05:21:49.818Z,1.10
2023-10-25T05:24:18.582Z,1.00
2023-10-25T05:26:46.288Z,1.00
2023-10-25T05:29:14.054Z,1.15
2023-10-25T05:31:45.082Z,0.85
2023-10-25T05:34:13.279Z,1.45
2023-10-25T05:36:40.952Z,1.10
2023-10-25T05:39:08.751Z,1.00
2023-10-25T05:41:41.913Z,1.20
2023-10-25T05:44:15.769Z,1.05
2023-10-25T05:46:43.709Z,1.00
2023-10-25T05:49:11.470Z,1.20
2023-10-25T05:51:39.162Z,1.20
2023-10-25T05:54:07.459Z,1.08
2023-10-25T05:56:35.204Z,1.10
2023-10-25T05:59:02.750Z,1.30
2023-10-25T06:01:49.468Z,1.50
2023-10-25T06:04:20.624Z,1.60
2023-10-25T06:06:48.298Z,1.23
2023-10-25T06:09:15.919Z,1.27
2023-10-25T06:11:43.631Z,1.30
2023-10-25T06:14:11.447Z,1.60
2023-10-25T06:16:39.326Z,1.40
2023-10-25T06:19:07.677Z,1.23
2023-10-25T06:21:35.691Z,1.23
2023-10-25T06:24:03.217Z,1.00
2023-10-25T06:26:30.717Z,1.40
2023-10-25T06:28:58.277Z,1.50
2023-10-25T06:31:25.748Z,1.38
2023-10-25T06:33:53.295Z,1.10
2023-10-25T06:36:20.977Z,1.10
2023-10-25T06:38:48.606Z,1.38
2023-10-25T06:41:20.408Z,1.38
2023-10-25T06:43:47.979Z,1.20
2023-10-25T06:46:15.753Z,1.45
2023-10-25T06:48:43.430Z,1.20
2023-10-25T06:51:11.349Z,1.40
2023-10-25T06:53:39.188Z,1.05
2023-10-25T06:56:07.487Z,0.93
2023-10-25T06:58:34.988Z,1.02
2023-10-25T07:01:07.141Z,1.00
2023-10-25T07:03:36.751Z,1.05
2023-10-25T07:06:06.077Z,0.95
2023-10-25T07:08:33.585Z,1.65
2023-10-25T07:11:01.637Z,1.40
2023-10-25T07:13:28.988Z,2.85
2023-10-25T07:15:56.346Z,1.30
2023-10-25T07:18:24.733Z,1.00
2023-10-25T07:20:52.141Z,1.20
2023-10-25T07:23:19.396Z,1.30
2023-10-25T07:25:46.733Z,1.20
2023-10-25T07:28:14.100Z,1.00
2023-10-25T07:30:41.330Z,0.80
2023-10-25T07:33:10.722Z,0.90
2023-10-25T07:35:39.407Z,1.10
2023-10-25T07:38:06.578Z,1.13
2023-10-25T07:40:33.793Z,0.98
2023-10-25T07:43:01.008Z,0.90
2023-10-25T07:45:28.408Z,1.05
2023-10-25T07:47:56.595Z,0.93
2023-10-25T07:50:23.900Z,0.90
2023-10-25T07:52:51.422Z,0.90
2023-10-25T07:56:22.203Z,1.30
2023-10-25T08:00:36.271Z,1.08
2023-10-25T08:03:03.798Z,1.20
2023-10-25T08:05:31.580Z,0.95
2023-10-25T08:07:58.877Z,1.20
2023-10-25T08:10:26.090Z,1.27
2023-10-25T08:12:53.358Z,1.10
2023-10-25T08:15:20.642Z,1.17
2023-10-25T08:17:47.955Z,2.10
2023-10-25T08:20:15.356Z,1.40
2023-10-25T08:22:42.632Z,1.25
2023-10-25T08:25:10.733Z,1.40
2023-10-25T08:27:38.218Z,1.00
2023-10-25T08:30:06.242Z,1.13
2023-10-25T08:32:33.550Z,1.00
2023-10-25T08:35:00.795Z,0.80
2023-10-25T08:37:28.526Z,0.90
2023-10-25T08:39:55.852Z,1.00
2023-10-25T08:42:23.190Z,0.93
2023-10-25T08:44:51.380Z,1.13
2023-10-25T08:47:20.056Z,1.10
2023-10-25T08:49:47.304Z,1.30
2023-10-25T08:52:17.878Z,0.80
2023-10-25T08:54:45.417Z,1.08
2023-10-25T08:57:12.778Z,1.35
2023-10-25T08:59:48.663Z,1.20
2023-10-25T09:02:16.225Z,1.00
2023-10-25T09:05:00.574Z,1.00
2023-10-25T09:07:32.373Z,0.90
2023-10-25T09:09:59.876Z,1.13
2023-10-25T09:12:27.524Z,1.50
2023-10-25T09:14:54.854Z,2.53
2023-10-25T09:17:22.256Z,2.15
2023-10-25T09:19:50.815Z,2.70
2023-10-25T09:22:24.237Z,2.17
2023-10-25T09:24:52.516Z,1.63
2023-10-25T09:27:21.977Z,2.40
2023-10-25T09:29:50.526Z,3.17
2023-10-25T09:32:23.257Z,2.70
2023-10-25T09:34:51.247Z,1.67
2023-10-25T09:37:18.517Z,1.88
2023-10-25T09:39:45.996Z,1.92
2023-10-25T09:42:14.573Z,1.50
2023-10-25T09:44:52.186Z,1.45
2023-10-25T09:47:20.861Z,1.70
2023-10-25T09:49:57.643Z,2.05
2023-10-25T09:52:30.221Z,1.58
2023-10-25T09:55:33.371Z,1.70
2023-10-25T09:58:01.940Z,2.72
2023-10-25T10:00:29.683Z,2.67
2023-10-25T10:03:11.467Z,2.10
2023-10-25T10:05:50.547Z,3.03
2023-10-25T10:08:40.496Z,1.80
2023-10-25T10:11:16.148Z,2.00
2023-10-25T10:13:43.669Z,2.00
2023-10-25T10:16:17.431Z,1.92
2023-10-25T10:18:47.442Z,1.80
2023-10-25T10:21:15.845Z,1.38
2023-10-25T10:23:51.237Z,1.80
2023-10-25T10:26:43.435Z,1.73
2023-10-25T10:29:35.066Z,1.50
2023-10-25T10:32:04.477Z,1.58
2023-10-25T10:35:04.991Z,1.58
2023-10-25T10:37:33.216Z,1.52
2023-10-25T10:40:03.289Z,1.95
2023-10-25T10:42:33.660Z,2.28
2023-10-25T10:45:04.557Z,1.50
2023-10-25T10:47:40.375Z,1.42
2023-10-25T10:50:22.762Z,2.28
2023-10-25T10:53:10.121Z,1.60
2023-10-25T10:55:52.605Z,1.70
2023-10-25T10:58:20.288Z,1.50
2023-10-25T11:00:49.276Z,2.03
2023-10-25T11:03:17.005Z,1.70
2023-10-25T11:05:44.289Z,1.70
2023-10-25T11:08:12.931Z,1.77
2023-10-25T11:10:40.826Z,1.50
2023-10-25T11:13:11.422Z,1.27
2023-10-25T11:15:40.222Z,1.40
2023-10-25T11:18:11.953Z,1.15
2023-10-25T11:20:40.806Z,1.23
2023-10-25T11:23:08.512Z,1.10
2023-10-25T11:25:39.604Z,1.35
2023-10-25T11:28:13.413Z,1.30
2023-10-25T11:30:42.217Z,1.10
2023-10-25T11:33:11.154Z,1.05
2023-10-25T11:35:43.398Z,1.00
2023-10-25T11:38:11.818Z,1.17
2023-10-25T11:40:42.595Z,0.90
2023-10-25T11:43:11.109Z,1.20
2023-10-25T11:45:39.273Z,1.50
2023-10-25T11:48:08.489Z,1.52
2023-10-25T11:50:37.194Z,0.88
2023-10-25T11:53:04.463Z,1.00
2023-10-25T11:55:32.033Z,1.33
2023-10-25T11:57:59.438Z,1.20
2023-10-25T12:00:27.120Z,1.20
2023-10-25T12:02:54.472Z,0.90
2023-10-25T12:05:21.855Z,0.90
2023-10-25T12:07:50.632Z,1.40
2023-10-25T12:10:18.188Z,1.00
2023-10-25T12:12:45.578Z,0.85
2023-10-25T12:15:13.068Z,1.00
2023-10-25T12:17:40.624Z,1.15
2023-10-25T12:20:25.719Z,1.05
2023-10-25T12:22:55.992Z,0.98
2023-10-25T12:25:23.353Z,1.35
2023-10-25T12:27:50.654Z,1.27
2023-10-25T12:30:18.203Z,1.23
2023-10-25T12:32:45.656Z,1.10
2023-10-25T12:35:12.857Z,1.38
2023-10-25T12:37:40.903Z,1.35
2023-10-25T12:40:09.953Z,1.00
2023-10-25T12:42:37.239Z,1.10
2023-10-25T12:45:05.256Z,0.98
2023-10-25T12:47:32.898Z,1.00
2023-10-25T12:50:00.093Z,1.13
2023-10-25T12:52:27.432Z,1.20
2023-10-25T12:54:55.589Z,1.20
2023-10-25T12:57:22.761Z,1.00
2023-10-25T12:59:50.094Z,0.95
2023-10-25T13:02:17.301Z,1.10
2023-10-25T13:04:44.927Z,0.98
2023-10-25T13:07:12.686Z,1.00
2023-10-25T13:09:40.655Z,1.00
2023-10-25T13:12:10.333Z,1.42
2023-10-25T13:14:37.853Z,1.15
2023-10-25T13:17:18.953Z,1.15
2023-10-25T13:19:47.781Z,1.30
2023-10-25T13:22:16.008Z,1.10
2023-10-25T13:24:43.638Z,0.95
2023-10-25T13:27:11.485Z,1.30
2023-10-25T13:29:40.033Z,1.20
2023-10-25T13:32:08.574Z,1.08
2023-10-25T13:34:36.132Z,1.15
2023-10-25T13:37:03.358Z,1.20
2023-10-25T13:39:30.662Z,1.05
2023-10-25T13:41:57.986Z,1.23
2023-10-25T13:44:25.978Z,1.38
2023-10-25T13:46:53.229Z,1.00
2023-10-25T13:49:20.528Z,1.10
2023-10-25T13:51:47.769Z,1.00
2023-10-25T13:54:16.110Z,0.90
2023-10-25T13:56:43.614Z,1.02
2023-10-25T13:59:10.963Z,0.90
2023-10-25T14:01:38.336Z,1.25
2023-10-25T14:04:05.878Z,1.10
2023-10-25T14:06:33.144Z,1.00
2023-10-25T14:09:00.408Z,1.27
2023-10-25T14:11:27.643Z,1.23
2023-10-25T14:13:55.882Z,1.10
2023-10-25T14:16:23.234Z,1.30
2023-10-25T14:18:50.757Z,1.10
2023-10-25T14:21:19.024Z,1.23
2023-10-25T14:23:47.824Z,1.35
2023-10-25T14:26:15.222Z,1.33
2023-10-25T14:28:42.554Z,1.00
2023-10-25T14:31:17.388Z,1.20
2023-10-25T14:33:45.409Z,1.20
2023-10-25T14:36:16.090Z,0.80
2023-10-25T14:38:44.061Z,1.00
2023-10-25T14:41:11.896Z,1.38
2023-10-25T14:43:42.168Z,1.05
2023-10-25T14:46:14.647Z,1.38
2023-10-25T14:48:42.844Z,1.45
2023-10-25T14:51:21.336Z,1.05
2023-10-25T14:53:49.726Z,1.00
2023-10-25T14:56:16.962Z,1.10
2023-10-25T14:58:44.242Z,0.90
2023-10-25T15:01:22.078Z,1.00
2023-10-25T15:03:56.862Z,1.00
2023-10-25T15:06:33.041Z,1.20
2023-10-25T15:09:00.552Z,1.20
2023-10-25T15:11:27.838Z,1.13
2023-10-25T15:13:55.100Z,1.10
2023-10-25T15:16:23.280Z,1.30
2023-10-25T15:18:50.975Z,1.15
2023-10-25T15:21:20.022Z,0.98
2023-10-25T15:23:48.028Z,1.30
2023-10-25T15:26:15.473Z,1.10
2023-10-25T15:28:43.823Z,1.40
2023-10-25T15:31:13.299Z,1.20
2023-10-25T15:33:41.535Z,1.10
2023-10-25T15:36:09.416Z,0.90
2023-10-25T15:38:38.617Z,1.13
2023-10-25T15:41:24.144Z,0.82
2023-10-25T15:43:52.974Z,1.15
2023-10-25T15:46:30.310Z,1.15
2023-10-25T15:48:59.550Z,1.10
2023-10-25T15:51:27.912Z,1.20
2023-10-25T15:53:56.498Z,1.13
2023-10-25T15:56:24.048Z,1.10
2023-10-25T15:58:51.663Z,1.70
2023-10-25T16:01:31.812Z,1.17
2023-10-25T16:04:06.595Z,1.30
2023-10-25T16:06:34.196Z,0.90
2023-10-25T16:09:01.960Z,1.08
2023-10-25T16:11:30.570Z,1.27
2023-10-25T16:13:57.903Z,1.15
2023-10-25T16:16:25.308Z,0.93
2023-10-25T16:18:52.748Z,0.93
2023-10-25T16:21:20.128Z,0.82
2023-10-25T16:23:49.435Z,1.10
2023-10-25T16:26:17.860Z,1.02
2023-10-25T16:28:46.529Z,0.93
2023-10-25T16:31:13.859Z,1.20
2023-10-25T16:33:45.328Z,0.98
2023-10-25T16:36:12.819Z,1.08
2023-10-25T16:38:40.101Z,0.90
2023-10-25T16:41:11.285Z,1.00
2023-10-25T16:43:39.970Z,1.10
2023-10-25T16:46:09.105Z,1.23
2023-10-25T16:48:39.107Z,1.02
2023-10-25T16:51:13.940Z,1.15
2023-10-25T16:53:44.877Z,1.17
2023-10-25T16:56:13.691Z,1.60
2023-10-25T16:58:42.068Z,0.77
2023-10-25T17:01:13.396Z,1.20
2023-10-25T17:03:44.162Z,1.40
2023-10-25T17:06:13.328Z,1.17
2023-10-25T17:08:41.845Z,1.35
2023-10-25T17:11:10.575Z,1.00
2023-10-25T17:13:39.776Z,1.00
2023-10-25T17:16:09.256Z,1.42
2023-10-25T17:18:41.075Z,1.10
2023-10-25T17:21:15.153Z,1.17
2023-10-25T17:23:46.497Z,1.02
2023-10-25T17:26:13.797Z,0.90
2023-10-25T17:28:41.484Z,0.98
2023-10-25T17:31:08.892Z,1.30
2023-10-25T17:33:53.620Z,1.20
2023-10-25T17:36:22.991Z,1.15
2023-10-25T17:39:05.573Z,0.88
2023-10-25T17:41:37.238Z,1.17
2023-10-25T17:44:05.629Z,1.10
2023-10-25T17:46:33.235Z,1.10
2023-10-25T17:49:00.738Z,0.90
2023-10-25T17:51:28.885Z,1.05
2023-10-25T17:53:56.212Z,1.30
2023-10-25T17:56:26.545Z,1.23
2023-10-25T17:58:53.752Z,1.02
2023-10-25T18:01:21.043Z,1.08
2023-10-25T18:03:48.639Z,1.20
2023-10-25T18:06:17.255Z,1.48
2023-10-25T18:08:44.664Z,1.25
2023-10-25T18:11:18.228Z,1.30
2023-10-25T18:13:59.628Z,1.80
2023-10-25T18:16:30.365Z,1.00
2023-10-25T18:18:57.640Z,0.93
2023-10-25T18:21:24.915Z,0.95
2023-10-25T18:23:54.422Z,1.00
2023-10-25T18:26:21.786Z,1.10
2023-10-25T18:28:49.067Z,1.10
2023-10-25T18:32:00.446Z,1.02
2023-10-25T18:34:05.477Z,1.33
2023-10-25T18:36:32.787Z,0.95
2023-10-25T18:39:00.155Z,1.00
2023-10-25T18:41:27.569Z,1.05
2023-10-25T18:43:54.866Z,1.20
2023-10-25T18:46:22.325Z,1.13
2023-10-25T18:48:49.960Z,1.40
2023-10-25T18:51:17.253Z,1.00
2023-10-25T18:53:44.605Z,1.15
2023-10-25T18:56:12.094Z,1.15
2023-10-25T18:58:40.328Z,1.67
2023-10-25T19:01:16.398Z,1.10
2023-10-25T19:03:51.336Z,1.50
2023-10-25T19:06:28.941Z,1.27
2023-10-25T19:09:01.233Z,1.27
2023-10-25T19:11:29.609Z,1.85
2023-10-25T19:13:58.213Z,1.13
2023-10-25T19:16:26.397Z,1.13
2023-10-25T19:18:53.779Z,1.20
2023-10-25T19:21:21.110Z,1.00
2023-10-25T19:23:50.815Z,1.00
2023-10-25T19:26:18.343Z,1.23
2023-10-25T19:28:46.157Z,1.92
2023-10-25T19:31:13.490Z,1.20
2023-10-25T19:33:41.840Z,1.02
2023-10-25T19:36:18.403Z,1.10
2023-10-25T19:38:45.754Z,1.25
2023-10-25T19:41:13.147Z,0.93
2023-10-25T19:43:40.430Z,1.00
2023-10-25T19:46:07.836Z,1.30
2023-10-25T19:48:35.455Z,1.17
2023-10-25T19:51:03.720Z,1.20
2023-10-25T19:53:31.232Z,1.52
2023-10-25T19:55:58.710Z,1.33
2023-10-25T19:58:26.849Z,1.40
2023-10-25T20:01:00.281Z,1.40
2023-10-25T20:03:27.699Z,1.10
2023-10-25T20:05:55.025Z,1.20
2023-10-25T20:08:23.379Z,1.02
2023-10-25T20:11:00.101Z,1.20
2023-10-25T20:13:28.217Z,1.30
2023-10-25T20:15:56.134Z,1.30
2023-10-25T20:18:24.540Z,1.30
2023-10-25T20:20:52.016Z,1.20
2023-10-25T20:23:19.258Z,1.15
2023-10-25T20:26:00.354Z,0.90
2023-10-25T20:28:27.676Z,1.20
2023-10-25T20:30:55.732Z,1.00
2023-10-25T20:33:25.022Z,1.00
2023-10-25T20:35:57.801Z,1.70
2023-10-25T20:38:25.102Z,1.00
2023-10-25T20:40:52.516Z,0.82
2023-10-25T20:43:20.260Z,1.20
2023-10-25T20:45:51.960Z,1.10
2023-10-25T20:48:19.300Z,1.30
2023-10-25T20:50:46.960Z,1.30
2023-10-25T20:53:14.175Z,1.77
2023-10-25T20:55:44.528Z,1.15
2023-10-25T20:58:11.771Z,1.52
2023-10-25T21:00:43.279Z,1.60
2023-10-25T21:03:10.844Z,1.17
2023-10-25T21:05:38.210Z,1.20
2023-10-25T21:08:05.681Z,1.30
2023-10-25T21:10:32.864Z,1.30
2023-10-25T21:13:00.035Z,1.10
2023-10-25T21:15:27.528Z,1.30
2023-10-25T21:17:55.325Z,1.10
2023-10-25T21:20:22.593Z,1.30
2023-10-25T21:22:50.029Z,1.08
2023-10-25T21:25:17.285Z,1.13
2023-10-25T21:27:44.557Z,1.00
2023-10-25T21:30:11.893Z,0.80
2023-10-25T21:32:39.121Z,0.80
2023-10-25T21:35:06.632Z,0.70
2023-10-25T21:37:33.876Z,0.80
2023-10-25T21:40:01.072Z,0.80
2023-10-25T21:42:28.352Z,0.75
2023-10-25T21:44:55.657Z,0.70
2023-10-25T21:47:23.212Z,0.88
2023-10-25T21:49:53.427Z,0.90
2023-10-25T21:52:20.714Z,0.68
2023-10-25T21:54:47.858Z,0.70
2023-10-25T21:57:15.180Z,0.82
2023-10-25T21:59:49.338Z,0.82
2023-10-25T22:02:26.915Z,0.60
2023-10-25T22:04:55.835Z,0.80
2023-10-25T22:07:23.178Z,0.80
2023-10-25T22:09:50.685Z,0.70
2023-10-25T22:12:18.907Z,1.00
2023-10-25T22:14:46.669Z,0.88
2023-10-25T22:17:13.997Z,0.90
2023-10-25T22:19:41.238Z,0.90
2023-10-25T22:22:08.623Z,0.80
2023-10-25T22:24:35.821Z,0.70
2023-10-25T22:27:03.143Z,0.50
2023-10-25T22:29:30.698Z,0.75
2023-10-25T22:31:58.608Z,0.80
2023-10-25T22:34:26.197Z,0.80
2023-10-25T22:36:53.485Z,0.77
2023-10-25T22:39:20.930Z,0.70
2023-10-25T22:41:48.738Z,0.65
2023-10-25T22:44:16.205Z,1.10
2023-10-25T22:46:43.578Z,0.40
2023-10-25T22:49:11.042Z,0.70
2023-10-25T22:51:38.572Z,0.60
2023-10-25T22:54:07.134Z,0.60
2023-10-25T22:56:35.395Z,0.50
2023-10-25T22:59:06.967Z,0.70
2023-10-25T23:01:34.165Z,0.70
2023-10-25T23:04:01.607Z,0.50
2023-10-25T23:06:28.917Z,0.88
2023-10-25T23:08:56.115Z,0.63
2023-10-25T23:11:24.317Z,0.70
2023-10-25T23:13:55.317Z,0.85
2023-10-25T23:16:22.612Z,0.80
2023-10-25T23:18:51.411Z,0.70
2023-10-25T23:21:19.089Z,0.63
2023-10-25T23:23:47.177Z,0.65
2023-10-25T23:26:14.502Z,0.63
2023-10-25T23:28:41.810Z,0.80
2023-10-25T23:31:11.034Z,0.70
2023-10-25T23:33:39.905Z,0.90
2023-10-25T23:36:09.610Z,0.70
2023-10-25T23:38:38.485Z,0.63
2023-10-25T23:41:05.949Z,0.77
2023-10-25T23:43:33.822Z,0.50
2023-10-25T23:46:01.052Z,0.60
2023-10-25T23:48:28.553Z,0.70
2023-10-25T23:50:55.946Z,0.70
2023-10-25T23:53:23.699Z,0.70
2023-10-25T23:55:50.934Z,0.63
2023-10-25T23:58:18.321Z,0.52
